VTCC/CNX METAR and TAF weather

Enter ICAO airport designator
Station Type Date Time Source
VTCC METAR 2018/12/13 08:30 UTC NOAA

VTCC 130830Z 01008KT 9999 FEW015 BKN035 23/21 Q1018 NOSIG


Station Type Date Time Source
VTCC Decoded METAR 2018/12/13 08:30 UTC NOAA

Chiang Mai, Thailand (VTCC) 18-47N 098-59E 314M
Dec 13, 2018 - 03:30 AM EST / 2018.12.13 0830 UTC
Wind: from the N (010 degrees) at 9 MPH (8 KT):0
Visibility: greater than 7 mile(s):0
Sky conditions: mostly cloudy
Temperature: 73 F (23 C)
Dew Point: 69 F (21 C)
Relative Humidity: 88%
Pressure (altimeter): 30.06 in. Hg (1018 hPa)
ob: VTCC 130830Z 01008KT 9999 FEW015 BKN035 23/21 Q1018 NOSIG
cycle: 8

Station Type Date Time Source
VTCC TAF 2018/12/13 06:39 UTC NOAA

TAF VTCC 130500Z 1306/1412 36005KT 9999 SCT035
TEMPO 1308/1313 VRB15KT 5000 TSRA FEW020CB BKN030


Example: see airport list